Tura, Russia
Current Conditions -  °F | °C
As of 5:30 PM on Tuesday 21 Oct 2014 (Local Time) from UIBB Reporting Station
Broken Clouds Broken Clouds  
Wind Chill: 27°   Ceiling: 10000
Heat Index: 34°   Visibility: 3mi
Dew Point: 23°   Wind: 9mph
Humidity: 65%   Direction: 170°S
Pressure: 29.65"   Gusts: NA
Location:  64.28°N, 100.25°E
Report Text: UIBB 211030Z 17004MPS P5000 BKN100 01/M05 Q1004 NOSIG RMKQFE710/0947 30CLRD60
Loading
Personal Weather Stations






























Interactive Weather Map
Tropical Storm Tracking
New forecast layout! Learn more

10-Day Weather Forecast

Advertisements
Track Severe Weather on mobile